Nearby METAR Reports

 

KMTN - Baltimore/Martin, Maryland, USA
Distance from station: SSE 8mi, 13km
Updated: Tue, 29-Jul-2014 4:30am EDT
Clear
Clear
 Wind from calm
Wind: Calm
Temperature: 63°F , 17°C
Dew Point: 59°F , 15°C
Humidity: 88%
Barometer: 29.86 inHg , 1011.2 hPa
Clouds: Clear
Visibility: 10 miles , 16 km
2014/07/29 08:30 KMTN 290830Z AUTO 00000KT 10SM CLR 17/15 A2986 RMK AO2
KDMH - Baltimore/Dwntwn, Maryland, USA
Distance from station: SW 12mi, 19km
Updated: Tue, 29-Jul-2014 3:54am EDT

 
Temperature: 66°F , 19°C
Dew Point: 57°F , 14°C
Humidity: 73%
Barometer: 29.85 inHg , 1010.8 hPa
2014/07/29 07:54 KDMH 290754Z AUTO 19/14 A2985 RMK AO1 SLP108 T01940144
 
KBWI - Balto/Wash Intl, Maryland, USA
Distance from station: SSW 20mi, 33km
Updated: Tue, 29-Jul-2014 3:54am EDT
Few Clouds
Few Clouds
 Wind from WNW
Wind: WNW 3 mph , 6 km/h
Temperature: 63°F , 17°C
Dew Point: 57°F , 14°C
Humidity: 83%
Barometer: 29.85 inHg , 1010.8 hPa
Clouds: Few Clouds
Visibility: 10 miles , 16 km
Cloud details: Few Clouds 8000 ft
2014/07/29 07:54 KBWI 290754Z 30003KT 10SM FEW080 17/14 A2985 RMK AO2 SLP105 T01720139
KDMW - Carroll Cnty, Maryland, USA
Distance from station: WNW 30mi, 48km
Updated: Tue, 29-Jul-2014 4:30am EDT
Clear
Clear
 Wind from calm
Wind: Calm
Temperature: 61°F , 16°C
Dew Point: 59°F , 15°C
Humidity: 94%
Barometer: 29.87 inHg , 1011.5 hPa
Clouds: Clear
Visibility: 10 miles , 16 km
2014/07/29 08:30 KDMW 290830Z AUTO 00000KT 10SM CLR 16/15 A2987 RMK AO2
 
KNAK - Annapolis/Naval, Maryland, USA
Distance from station: S 30mi, 48km
Updated: Tue, 29-Jul-2014 3:54am EDT
Clear
Clear
 Wind from W
Wind: W 7 mph , 11 km/h
Temperature: 66°F , 19°C
Dew Point: 59°F , 15°C
Humidity: 78%
Barometer: 29.84 inHg , 1010.5 hPa
Clouds: Clear
Visibility: 10 miles , 16 km
2014/07/29 07:54 KNAK 290754Z AUTO 28006KT 10SM CLR 19/15 A2984 RMK AO2 SLP107 T01940150
KW29 - Stevensville, Maryland, USA
Distance from station: SSE 31mi, 50km
Updated: Tue, 29-Jul-2014 4:31am EDT

 Wind from NNW
Wind: NNW 8 mph , 13 km/h, Gust: 16 mph , 26 km/h
Temperature: 68°F , 20°C
Dew Point: 55°F , 13°C
Humidity: 64%
Barometer: 29.85 inHg , 1010.8 hPa
Visibility: 10 miles , 16 km
2014/07/29 08:31 KW29 290831Z AUTO 34007G14KT 10SM 20/13 A2985 RMK AO1
 
KCGS - College Park, Maryland, USA
Distance from station: SW 38mi, 61km
Updated: Tue, 29-Jul-2014 4:30am EDT
Clear
Clear
 Wind from WNW
Wind: WNW 5 mph , 7 km/h
Temperature: 64°F , 18°C
Dew Point: 57°F , 14°C
Humidity: 78%
Barometer: 29.86 inHg , 1011.2 hPa
Clouds: Clear
Visibility: 10 miles , 16 km
2014/07/29 08:30 KCGS 290830Z AUTO 30004KT 10SM CLR 18/14 A2986 RMK AO1
KGAI - Gaithersburg, Maryland, USA
Distance from station: WSW 40mi, 65km
Updated: Tue, 29-Jul-2014 4:35am EDT
Clear
Clear
 Wind from WNW
Wind: WNW 8 mph , 13 km/h
Temperature: 61°F , 16°C
Dew Point: 54°F , 12°C
Humidity: 77%
Barometer: 29.91 inHg , 1012.9 hPa
Clouds: Clear
Visibility: 10 miles , 16 km
2014/07/29 08:35 KGAI 290835Z AUTO 30007KT 10SM CLR 16/12 A2991 RMK AO1
 
KTHV - York, Pennsylvania, USA
Distance from station: NNW 40mi, 65km
Updated: Tue, 29-Jul-2014 3:53am EDT
Clear
Clear
 Wind from WNW
Wind: WNW 3 mph , 6 km/h
Temperature: 55°F , 13°C
Dew Point: 54°F , 12°C
Humidity: 94%
Barometer: 29.85 inHg , 1010.8 hPa
Clouds: Clear
Visibility: 10 miles , 16 km
2014/07/29 07:53 KTHV 290753Z AUTO 30003KT 10SM CLR 13/12 A2985 RMK AO2 SLP109 T01330122
KFDK - Frederick, Maryland, USA
Distance from station: W 47mi, 75km
Updated: Tue, 29-Jul-2014 4:30am EDT
Mostly cloudy
Mostly cloudy
 Wind from WNW
Wind: WNW 7 mph , 11 km/h
Temperature: 63°F , 17°C
Dew Point: 57°F , 14°C
Humidity: 83%
Barometer: 29.90 inHg , 1012.5 hPa
Clouds: Mostly cloudy
Visibility: 10 miles , 16 km
Cloud details: Mostly cloudy 4900 ft
2014/07/29 08:30 KFDK 290830Z AUTO 29006KT 10SM BKN049 17/14 A2990 RMK AO2
 
KESN - Easton/Newnam, Maryland, USA
Distance from station: SSE 48mi, 78km
Updated: Tue, 29-Jul-2014 4:43am EDT
Clear
Clear
 Wind from N
Wind: N 5 mph , 7 km/h
Temperature: 68°F , 20°C
Dew Point: 61°F , 16°C
Humidity: 78%
Barometer: 29.88 inHg , 1011.9 hPa
Clouds: Clear
Visibility: 10 miles , 16 km
2014/07/29 08:43 KESN 290843Z AUTO 36004KT 10SM CLR 20/16 A2988 RMK AO2 T01960160
KDCA - Washington/Natl, Washington D.c., USA
Distance from station: SW 49mi, 79km
Updated: Tue, 29-Jul-2014 3:52am EDT
Clear
Clear
 Wind from NW
Wind: NW 9 mph , 15 km/h
Temperature: 68°F , 20°C
Dew Point: 55°F , 13°C
Humidity: 64%
Barometer: 29.86 inHg , 1011.2 hPa
Clouds: Clear
Visibility: 10 miles , 16 km
2014/07/29 07:52 KDCA 290752Z 32008KT 10SM CLR 20/13 A2986 RMK AO2 SLP112 T02000128
 
KLNS - Lancaster, Pennsylvania, USA
Distance from station: N 49mi, 79km
Updated: Tue, 29-Jul-2014 3:53am EDT
Clear
Clear
 Wind from W
Wind: W 5 mph , 7 km/h
Temperature: 59°F , 15°C
Dew Point: 55°F , 13°C
Humidity: 88%
Barometer: 29.84 inHg , 1010.5 hPa
Clouds: Clear
Visibility: 10 miles , 16 km
2014/07/29 07:53 KLNS 290753Z AUTO 28004KT 10SM CLR 15/13 A2984 RMK AO2 SLP103 T01500128
KILG - Wilmington, Delaware, USA
Distance from station: ENE 50mi, 81km
Updated: Tue, 29-Jul-2014 3:51am EDT
Clear
Clear
 Wind from WNW
Wind: WNW 8 mph , 13 km/h
Temperature: 63°F , 17°C
Dew Point: 59°F , 15°C
Humidity: 88%
Barometer: 29.83 inHg , 1010.2 hPa
Clouds: Clear
Visibility: 10 miles , 16 km
2014/07/29 07:51 KILG 290751Z 30007KT 10SM CLR 17/15 A2983 RMK AO2 SLP100 T01720150